sensor_id;sensor_type;location;lat;lon;timestamp;P1;durP1;ratioP1;P2;durP2;ratioP2
15573;SDS011;7888;46.748;8.102;2024-01-10T00:01:43;11.13;;;8.03;;
15573;SDS011;7888;46.748;8.102;2024-01-10T00:04:09;10.57;;;8.33;;
15573;SDS011;7888;46.748;8.102;2024-01-10T00:06:35;10.90;;;7.60;;
15573;SDS011;7888;46.748;8.102;2024-01-10T00:09:00;10.30;;;7.23;;
15573;SDS011;7888;46.748;8.102;2024-01-10T00:11:27;10.23;;;7.23;;
15573;SDS011;7888;46.748;8.102;2024-01-10T00:13:53;10.03;;;8.10;;
15573;SDS011;7888;46.748;8.102;2024-01-10T00:16:24;10.43;;;8.17;;
15573;SDS011;7888;46.748;8.102;2024-01-10T00:18:51;10.03;;;7.60;;
15573;SDS011;7888;46.748;8.102;2024-01-10T00:21:17;9.03;;;7.47;;
15573;SDS011;7888;46.748;8.102;2024-01-10T00:23:43;9.77;;;7.47;;
15573;SDS011;7888;46.748;8.102;2024-01-10T00:26:08;10.67;;;8.50;;
15573;SDS011;7888;46.748;8.102;2024-01-10T00:28:34;9.47;;;7.77;;
15573;SDS011;7888;46.748;8.102;2024-01-10T00:31:00;10.57;;;7.90;;
15573;SDS011;7888;46.748;8.102;2024-01-10T00:33:26;11.63;;;7.87;;
15573;SDS011;7888;46.748;8.102;2024-01-10T00:35:52;9.17;;;7.20;;
15573;SDS011;7888;46.748;8.102;2024-01-10T00:38:17;8.60;;;6.97;;
15573;SDS011;7888;46.748;8.102;2024-01-10T00:40:43;10.00;;;7.53;;
15573;SDS011;7888;46.748;8.102;2024-01-10T00:43:09;9.47;;;6.63;;
15573;SDS011;7888;46.748;8.102;2024-01-10T00:45:35;12.13;;;7.43;;
15573;SDS011;7888;46.748;8.102;2024-01-10T00:48:00;9.37;;;7.27;;
15573;SDS011;7888;46.748;8.102;2024-01-10T00:50:26;9.63;;;7.60;;
15573;SDS011;7888;46.748;8.102;2024-01-10T00:52:52;10.87;;;8.20;;
15573;SDS011;7888;46.748;8.102;2024-01-10T00:55:17;9.70;;;7.33;;
15573;SDS011;7888;46.748;8.102;2024-01-10T00:57:43;11.23;;;8.17;;
15573;SDS011;7888;46.748;8.102;2024-01-10T01:00:09;11.47;;;8.77;;
15573;SDS011;7888;46.748;8.102;2024-01-10T01:02:36;14.70;;;10.40;;
15573;SDS011;7888;46.748;8.102;2024-01-10T01:05:04;13.73;;;8.73;;
15573;SDS011;7888;46.748;8.102;2024-01-10T01:07:32;10.80;;;8.30;;
15573;SDS011;7888;46.748;8.102;2024-01-10T01:09:58;10.73;;;7.80;;
15573;SDS011;7888;46.748;8.102;2024-01-10T01:12:24;8.17;;;6.43;;
15573;SDS011;7888;46.748;8.102;2024-01-10T01:14:50;8.40;;;6.47;;
15573;SDS011;7888;46.748;8.102;2024-01-10T01:17:16;8.63;;;6.17;;
15573;SDS011;7888;46.748;8.102;2024-01-10T01:19:42;9.23;;;6.93;;
15573;SDS011;7888;46.748;8.102;2024-01-10T01:22:07;8.70;;;6.20;;
15573;SDS011;7888;46.748;8.102;2024-01-10T01:24:33;7.53;;;6.07;;
15573;SDS011;7888;46.748;8.102;2024-01-10T01:26:59;10.40;;;8.00;;
15573;SDS011;7888;46.748;8.102;2024-01-10T01:29:25;9.73;;;7.53;;
15573;SDS011;7888;46.748;8.102;2024-01-10T01:31:50;11.60;;;7.70;;
15573;SDS011;7888;46.748;8.102;2024-01-10T01:34:17;10.37;;;8.13;;
15573;SDS011;7888;46.748;8.102;2024-01-10T01:36:43;10.07;;;7.50;;
15573;SDS011;7888;46.748;8.102;2024-01-10T01:39:09;8.50;;;7.07;;
15573;SDS011;7888;46.748;8.102;2024-01-10T01:41:34;9.43;;;7.27;;
15573;SDS011;7888;46.748;8.102;2024-01-10T01:44:00;10.17;;;6.97;;
15573;SDS011;7888;46.748;8.102;2024-01-10T01:46:26;9.83;;;7.30;;
15573;SDS011;7888;46.748;8.102;2024-01-10T01:48:53;10.60;;;7.30;;
15573;SDS011;7888;46.748;8.102;2024-01-10T01:51:18;9.13;;;7.10;;
15573;SDS011;7888;46.748;8.102;2024-01-10T01:53:47;9.07;;;7.03;;
15573;SDS011;7888;46.748;8.102;2024-01-10T01:56:14;10.10;;;7.37;;
15573;SDS011;7888;46.748;8.102;2024-01-10T01:58:41;10.33;;;7.63;;
15573;SDS011;7888;46.748;8.102;2024-01-10T02:01:10;9.13;;;7.57;;
15573;SDS011;7888;46.748;8.102;2024-01-10T02:03:37;10.20;;;8.17;;
15573;SDS011;7888;46.748;8.102;2024-01-10T02:06:03;10.03;;;8.37;;
15573;SDS011;7888;46.748;8.102;2024-01-10T02:08:30;11.10;;;7.90;;
15573;SDS011;7888;46.748;8.102;2024-01-10T02:11:00;11.03;;;8.23;;
15573;SDS011;7888;46.748;8.102;2024-01-10T02:13:28;8.83;;;7.17;;
15573;SDS011;7888;46.748;8.102;2024-01-10T02:15:54;10.60;;;8.20;;
15573;SDS011;7888;46.748;8.102;2024-01-10T02:18:20;10.83;;;7.40;;
15573;SDS011;7888;46.748;8.102;2024-01-10T02:20:46;13.80;;;9.13;;
15573;SDS011;7888;46.748;8.102;2024-01-10T02:23:12;10.43;;;7.83;;
15573;SDS011;7888;46.748;8.102;2024-01-10T02:25:38;10.17;;;7.73;;
15573;SDS011;7888;46.748;8.102;2024-01-10T02:28:06;9.73;;;7.00;;
15573;SDS011;7888;46.748;8.102;2024-01-10T02:30:32;10.07;;;8.10;;
15573;SDS011;7888;46.748;8.102;2024-01-10T02:32:58;11.40;;;7.93;;
15573;SDS011;7888;46.748;8.102;2024-01-10T02:35:24;10.90;;;8.47;;
15573;SDS011;7888;46.748;8.102;2024-01-10T02:37:51;12.87;;;9.00;;
15573;SDS011;7888;46.748;8.102;2024-01-10T02:40:19;10.77;;;7.67;;
15573;SDS011;7888;46.748;8.102;2024-01-10T02:42:45;11.80;;;8.13;;
15573;SDS011;7888;46.748;8.102;2024-01-10T02:45:11;8.33;;;6.73;;
15573;SDS011;7888;46.748;8.102;2024-01-10T02:47:37;9.90;;;7.47;;
15573;SDS011;7888;46.748;8.102;2024-01-10T02:50:04;11.10;;;7.63;;
15573;SDS011;7888;46.748;8.102;2024-01-10T02:52:31;10.83;;;7.87;;
15573;SDS011;7888;46.748;8.102;2024-01-10T02:54:57;9.83;;;7.70;;
15573;SDS011;7888;46.748;8.102;2024-01-10T02:57:23;10.23;;;8.13;;
15573;SDS011;7888;46.748;8.102;2024-01-10T02:59:48;10.20;;;8.23;;
15573;SDS011;7888;46.748;8.102;2024-01-10T03:02:14;10.87;;;8.40;;
15573;SDS011;7888;46.748;8.102;2024-01-10T03:04:41;10.07;;;7.73;;
15573;SDS011;7888;46.748;8.102;2024-01-10T03:07:07;9.90;;;7.63;;
15573;SDS011;7888;46.748;8.102;2024-01-10T03:09:32;9.73;;;7.87;;
15573;SDS011;7888;46.748;8.102;2024-01-10T03:11:58;10.27;;;7.60;;
15573;SDS011;7888;46.748;8.102;2024-01-10T03:14:24;10.20;;;7.13;;
15573;SDS011;7888;46.748;8.102;2024-01-10T03:16:50;8.67;;;6.90;;
15573;SDS011;7888;46.748;8.102;2024-01-10T03:19:15;12.33;;;8.10;;
15573;SDS011;7888;46.748;8.102;2024-01-10T03:21:41;10.60;;;7.63;;
15573;SDS011;7888;46.748;8.102;2024-01-10T03:24:07;10.13;;;7.50;;
15573;SDS011;7888;46.748;8.102;2024-01-10T03:26:33;11.03;;;7.93;;
15573;SDS011;7888;46.748;8.102;2024-01-10T03:28:59;10.10;;;7.77;;
15573;SDS011;7888;46.748;8.102;2024-01-10T03:31:26;9.77;;;7.17;;
15573;SDS011;7888;46.748;8.102;2024-01-10T03:33:53;10.73;;;7.90;;
15573;SDS011;7888;46.748;8.102;2024-01-10T03:36:19;9.40;;;7.13;;
15573;SDS011;7888;46.748;8.102;2024-01-10T03:38:45;10.17;;;7.57;;
15573;SDS011;7888;46.748;8.102;2024-01-10T03:41:17;10.20;;;8.00;;
15573;SDS011;7888;46.748;8.102;2024-01-10T03:43:44;12.30;;;8.17;;
15573;SDS011;7888;46.748;8.102;2024-01-10T03:46:11;8.13;;;7.00;;
15573;SDS011;7888;46.748;8.102;2024-01-10T03:48:38;9.53;;;7.20;;
15573;SDS011;7888;46.748;8.102;2024-01-10T03:51:12;10.50;;;7.23;;
15573;SDS011;7888;46.748;8.102;2024-01-10T03:53:39;10.07;;;7.93;;
15573;SDS011;7888;46.748;8.102;2024-01-10T03:56:05;10.50;;;7.67;;
15573;SDS011;7888;46.748;8.102;2024-01-10T03:58:32;10.63;;;8.07;;
15573;SDS011;7888;46.748;8.102;2024-01-10T04:00:57;11.40;;;8.50;;
15573;SDS011;7888;46.748;8.102;2024-01-10T04:03:23;10.70;;;8.30;;
15573;SDS011;7888;46.748;8.102;2024-01-10T04:05:49;10.83;;;8.47;;
15573;SDS011;7888;46.748;8.102;2024-01-10T04:08:14;10.43;;;7.77;;
15573;SDS011;7888;46.748;8.102;2024-01-10T04:10:40;10.40;;;7.10;;
15573;SDS011;7888;46.748;8.102;2024-01-10T04:13:06;8.83;;;7.20;;
15573;SDS011;7888;46.748;8.102;2024-01-10T04:15:32;9.30;;;7.07;;
15573;SDS011;7888;46.748;8.102;2024-01-10T04:17:59;10.67;;;7.27;;
15573;SDS011;7888;46.748;8.102;2024-01-10T04:20:25;9.77;;;7.40;;
15573;SDS011;7888;46.748;8.102;2024-01-10T04:22:50;8.73;;;7.07;;
15573;SDS011;7888;46.748;8.102;2024-01-10T04:25:16;9.97;;;6.90;;
15573;SDS011;7888;46.748;8.102;2024-01-10T04:27:42;8.77;;;7.17;;
15573;SDS011;7888;46.748;8.102;2024-01-10T04:30:08;8.17;;;6.93;;
15573;SDS011;7888;46.748;8.102;2024-01-10T04:32:34;8.97;;;7.30;;
15573;SDS011;7888;46.748;8.102;2024-01-10T04:35:00;10.47;;;7.43;;
15573;SDS011;7888;46.748;8.102;2024-01-10T04:37:25;8.20;;;6.73;;
15573;SDS011;7888;46.748;8.102;2024-01-10T04:39:51;9.57;;;7.17;;
15573;SDS011;7888;46.748;8.102;2024-01-10T04:42:17;9.03;;;6.93;;
15573;SDS011;7888;46.748;8.102;2024-01-10T04:44:43;10.23;;;7.13;;
15573;SDS011;7888;46.748;8.102;2024-01-10T04:47:08;10.43;;;7.23;;
15573;SDS011;7888;46.748;8.102;2024-01-10T04:49:34;9.37;;;7.07;;
15573;SDS011;7888;46.748;8.102;2024-01-10T04:52:00;10.80;;;7.03;;
15573;SDS011;7888;46.748;8.102;2024-01-10T04:54:27;9.47;;;7.60;;
15573;SDS011;7888;46.748;8.102;2024-01-10T04:56:52;10.07;;;8.03;;
15573;SDS011;7888;46.748;8.102;2024-01-10T04:59:18;10.23;;;7.80;;
15573;SDS011;7888;46.748;8.102;2024-01-10T05:01:44;9.13;;;7.07;;
15573;SDS011;7888;46.748;8.102;2024-01-10T05:04:10;10.50;;;7.40;;
15573;SDS011;7888;46.748;8.102;2024-01-10T05:06:36;9.33;;;7.27;;
15573;SDS011;7888;46.748;8.102;2024-01-10T05:09:03;9.30;;;7.10;;
15573;SDS011;7888;46.748;8.102;2024-01-10T05:11:29;10.20;;;6.83;;
15573;SDS011;7888;46.748;8.102;2024-01-10T05:13:56;11.17;;;7.93;;
15573;SDS011;7888;46.748;8.102;2024-01-10T05:16:22;10.10;;;7.53;;
15573;SDS011;7888;46.748;8.102;2024-01-10T05:18:47;10.40;;;8.13;;
15573;SDS011;7888;46.748;8.102;2024-01-10T05:21:13;11.10;;;8.33;;
15573;SDS011;7888;46.748;8.102;2024-01-10T05:23:39;9.77;;;7.60;;
15573;SDS011;7888;46.748;8.102;2024-01-10T05:26:05;9.37;;;7.87;;
15573;SDS011;7888;46.748;8.102;2024-01-10T05:28:31;11.63;;;8.13;;
15573;SDS011;7888;46.748;8.102;2024-01-10T05:30:57;9.30;;;6.97;;
15573;SDS011;7888;46.748;8.102;2024-01-10T05:33:24;9.00;;;6.97;;
15573;SDS011;7888;46.748;8.102;2024-01-10T05:35:49;9.30;;;6.90;;
15573;SDS011;7888;46.748;8.102;2024-01-10T05:38:15;9.57;;;6.80;;
15573;SDS011;7888;46.748;8.102;2024-01-10T05:40:41;9.80;;;7.93;;
15573;SDS011;7888;46.748;8.102;2024-01-10T05:43:07;10.10;;;7.37;;
15573;SDS011;7888;46.748;8.102;2024-01-10T05:45:32;9.10;;;6.93;;
15573;SDS011;7888;46.748;8.102;2024-01-10T05:47:58;9.80;;;6.73;;
15573;SDS011;7888;46.748;8.102;2024-01-10T05:50:24;9.80;;;7.23;;
15573;SDS011;7888;46.748;8.102;2024-01-10T05:52:50;11.23;;;7.67;;
15573;SDS011;7888;46.748;8.102;2024-01-10T05:55:16;9.33;;;7.30;;
15573;SDS011;7888;46.748;8.102;2024-01-10T05:57:41;9.37;;;7.83;;
15573;SDS011;7888;46.748;8.102;2024-01-10T06:00:07;10.00;;;7.20;;
15573;SDS011;7888;46.748;8.102;2024-01-10T06:02:37;9.93;;;7.47;;
15573;SDS011;7888;46.748;8.102;2024-01-10T06:05:06;9.97;;;7.43;;
15573;SDS011;7888;46.748;8.102;2024-01-10T06:07:36;9.43;;;7.23;;
15573;SDS011;7888;46.748;8.102;2024-01-10T06:10:03;9.43;;;7.47;;
15573;SDS011;7888;46.748;8.102;2024-01-10T06:12:30;8.50;;;6.80;;
15573;SDS011;7888;46.748;8.102;2024-01-10T06:14:56;12.17;;;9.13;;
15573;SDS011;7888;46.748;8.102;2024-01-10T06:17:24;12.77;;;8.90;;
15573;SDS011;7888;46.748;8.102;2024-01-10T06:19:50;10.37;;;7.37;;
15573;SDS011;7888;46.748;8.102;2024-01-10T06:22:16;14.53;;;9.83;;
15573;SDS011;7888;46.748;8.102;2024-01-10T06:24:42;15.13;;;10.90;;
15573;SDS011;7888;46.748;8.102;2024-01-10T06:27:09;13.67;;;9.93;;
15573;SDS011;7888;46.748;8.102;2024-01-10T06:29:35;14.17;;;10.73;;
15573;SDS011;7888;46.748;8.102;2024-01-10T06:32:02;14.90;;;11.47;;
15573;SDS011;7888;46.748;8.102;2024-01-10T06:34:29;16.50;;;11.83;;
15573;SDS011;7888;46.748;8.102;2024-01-10T06:36:54;16.83;;;12.23;;
15573;SDS011;7888;46.748;8.102;2024-01-10T06:39:20;16.33;;;12.00;;
15573;SDS011;7888;46.748;8.102;2024-01-10T06:41:47;15.97;;;10.93;;
15573;SDS011;7888;46.748;8.102;2024-01-10T06:44:12;18.17;;;11.17;;
15573;SDS011;7888;46.748;8.102;2024-01-10T06:46:38;14.90;;;10.27;;
15573;SDS011;7888;46.748;8.102;2024-01-10T06:49:04;14.10;;;10.80;;
15573;SDS011;7888;46.748;8.102;2024-01-10T06:51:32;15.57;;;10.97;;
15573;SDS011;7888;46.748;8.102;2024-01-10T06:53:58;13.57;;;9.80;;
15573;SDS011;7888;46.748;8.102;2024-01-10T06:56:28;11.13;;;8.93;;
15573;SDS011;7888;46.748;8.102;2024-01-10T06:58:56;12.27;;;9.70;;
15573;SDS011;7888;46.748;8.102;2024-01-10T07:01:23;11.77;;;9.33;;
15573;SDS011;7888;46.748;8.102;2024-01-10T07:03:48;10.77;;;8.70;;
15573;SDS011;7888;46.748;8.102;2024-01-10T07:06:14;12.13;;;9.93;;
15573;SDS011;7888;46.748;8.102;2024-01-10T07:08:40;13.30;;;9.13;;
15573;SDS011;7888;46.748;8.102;2024-01-10T07:11:09;14.03;;;9.37;;
15573;SDS011;7888;46.748;8.102;2024-01-10T07:13:39;13.73;;;9.00;;
15573;SDS011;7888;46.748;8.102;2024-01-10T07:16:06;13.37;;;9.77;;
15573;SDS011;7888;46.748;8.102;2024-01-10T07:18:33;12.97;;;9.53;;
15573;SDS011;7888;46.748;8.102;2024-01-10T07:20:59;17.23;;;11.97;;
15573;SDS011;7888;46.748;8.102;2024-01-10T07:23:25;14.67;;;10.83;;
15573;SDS011;7888;46.748;8.102;2024-01-10T07:25:51;14.93;;;10.13;;
15573;SDS011;7888;46.748;8.102;2024-01-10T07:28:17;15.40;;;10.93;;
15573;SDS011;7888;46.748;8.102;2024-01-10T07:30:44;15.40;;;10.70;;
15573;SDS011;7888;46.748;8.102;2024-01-10T07:33:11;16.60;;;10.87;;
15573;SDS011;7888;46.748;8.102;2024-01-10T07:35:37;15.13;;;10.90;;
15573;SDS011;7888;46.748;8.102;2024-01-10T07:38:03;16.53;;;10.80;;
15573;SDS011;7888;46.748;8.102;2024-01-10T07:40:33;19.20;;;13.40;;
15573;SDS011;7888;46.748;8.102;2024-01-10T07:43:00;17.07;;;12.30;;
15573;SDS011;7888;46.748;8.102;2024-01-10T07:45:26;19.60;;;13.00;;
15573;SDS011;7888;46.748;8.102;2024-01-10T07:47:52;18.17;;;12.60;;
15573;SDS011;7888;46.748;8.102;2024-01-10T07:50:18;15.23;;;11.40;;
15573;SDS011;7888;46.748;8.102;2024-01-10T07:52:44;16.37;;;12.17;;
15573;SDS011;7888;46.748;8.102;2024-01-10T07:55:14;18.67;;;13.73;;
15573;SDS011;7888;46.748;8.102;2024-01-10T07:57:40;18.13;;;12.53;;
15573;SDS011;7888;46.748;8.102;2024-01-10T08:00:07;15.30;;;11.83;;
15573;SDS011;7888;46.748;8.102;2024-01-10T08:02:38;16.63;;;11.63;;
15573;SDS011;7888;46.748;8.102;2024-01-10T08:05:05;14.77;;;9.90;;
15573;SDS011;7888;46.748;8.102;2024-01-10T08:07:35;13.40;;;9.73;;
15573;SDS011;7888;46.748;8.102;2024-01-10T08:10:05;12.03;;;8.80;;
15573;SDS011;7888;46.748;8.102;2024-01-10T08:12:33;16.33;;;10.57;;
15573;SDS011;7888;46.748;8.102;2024-01-10T08:14:58;13.97;;;9.57;;
15573;SDS011;7888;46.748;8.102;2024-01-10T08:17:24;16.03;;;11.13;;
15573;SDS011;7888;46.748;8.102;2024-01-10T08:19:50;15.63;;;10.83;;
15573;SDS011;7888;46.748;8.102;2024-01-10T08:22:17;15.60;;;10.43;;
15573;SDS011;7888;46.748;8.102;2024-01-10T08:24:44;16.37;;;12.00;;
15573;SDS011;7888;46.748;8.102;2024-01-10T08:27:11;16.10;;;11.70;;
15573;SDS011;7888;46.748;8.102;2024-01-10T08:29:37;14.17;;;10.07;;
15573;SDS011;7888;46.748;8.102;2024-01-10T08:32:03;14.90;;;10.10;;
15573;SDS011;7888;46.748;8.102;2024-01-10T08:34:30;13.80;;;10.20;;
15573;SDS011;7888;46.748;8.102;2024-01-10T08:36:55;15.17;;;10.43;;
15573;SDS011;7888;46.748;8.102;2024-01-10T08:39:21;13.80;;;10.07;;
15573;SDS011;7888;46.748;8.102;2024-01-10T08:41:49;13.07;;;8.87;;
15573;SDS011;7888;46.748;8.102;2024-01-10T08:44:15;14.73;;;9.17;;
15573;SDS011;7888;46.748;8.102;2024-01-10T08:46:41;11.67;;;8.23;;
15573;SDS011;7888;46.748;8.102;2024-01-10T08:49:06;13.20;;;9.67;;
15573;SDS011;7888;46.748;8.102;2024-01-10T08:51:32;12.13;;;8.47;;
15573;SDS011;7888;46.748;8.102;2024-01-10T08:53:59;13.43;;;9.53;;
15573;SDS011;7888;46.748;8.102;2024-01-10T08:56:25;12.23;;;9.83;;
15573;SDS011;7888;46.748;8.102;2024-01-10T08:58:51;15.40;;;9.87;;
15573;SDS011;7888;46.748;8.102;2024-01-10T09:01:17;12.50;;;8.70;;
15573;SDS011;7888;46.748;8.102;2024-01-10T09:03:44;11.50;;;8.50;;
15573;SDS011;7888;46.748;8.102;2024-01-10T09:06:11;10.90;;;8.17;;
15573;SDS011;7888;46.748;8.102;2024-01-10T09:08:37;13.03;;;9.30;;
15573;SDS011;7888;46.748;8.102;2024-01-10T09:11:04;14.43;;;9.93;;
15573;SDS011;7888;46.748;8.102;2024-01-10T09:13:30;11.00;;;9.13;;
15573;SDS011;7888;46.748;8.102;2024-01-10T09:15:56;11.17;;;8.87;;
15573;SDS011;7888;46.748;8.102;2024-01-10T09:18:22;13.17;;;9.50;;
15573;SDS011;7888;46.748;8.102;2024-01-10T09:20:48;12.33;;;8.97;;
15573;SDS011;7888;46.748;8.102;2024-01-10T09:23:14;13.13;;;8.73;;
15573;SDS011;7888;46.748;8.102;2024-01-10T09:25:40;12.00;;;9.37;;
15573;SDS011;7888;46.748;8.102;2024-01-10T09:28:06;12.60;;;9.17;;
15573;SDS011;7888;46.748;8.102;2024-01-10T09:30:32;12.53;;;9.40;;
15573;SDS011;7888;46.748;8.102;2024-01-10T09:32:59;11.53;;;8.67;;
15573;SDS011;7888;46.748;8.102;2024-01-10T09:35:25;13.57;;;9.20;;
15573;SDS011;7888;46.748;8.102;2024-01-10T09:37:51;12.43;;;9.00;;
15573;SDS011;7888;46.748;8.102;2024-01-10T09:40:18;13.73;;;10.10;;
15573;SDS011;7888;46.748;8.102;2024-01-10T09:42:47;12.93;;;9.67;;
15573;SDS011;7888;46.748;8.102;2024-01-10T09:45:16;12.43;;;8.93;;
15573;SDS011;7888;46.748;8.102;2024-01-10T09:47:46;11.23;;;8.87;;
15573;SDS011;7888;46.748;8.102;2024-01-10T09:50:16;12.60;;;8.80;;
15573;SDS011;7888;46.748;8.102;2024-01-10T09:52:52;10.23;;;8.17;;
15573;SDS011;7888;46.748;8.102;2024-01-10T09:55:30;11.40;;;8.57;;
15573;SDS011;7888;46.748;8.102;2024-01-10T09:58:05;10.70;;;8.13;;
15573;SDS011;7888;46.748;8.102;2024-01-10T10:00:33;10.77;;;8.57;;
15573;SDS011;7888;46.748;8.102;2024-01-10T10:03:01;13.00;;;9.60;;
15573;SDS011;7888;46.748;8.102;2024-01-10T10:05:29;9.90;;;8.53;;
15573;SDS011;7888;46.748;8.102;2024-01-10T10:07:59;11.33;;;8.63;;
15573;SDS011;7888;46.748;8.102;2024-01-10T10:10:25;12.30;;;9.93;;
15573;SDS011;7888;46.748;8.102;2024-01-10T10:12:52;12.63;;;9.37;;
15573;SDS011;7888;46.748;8.102;2024-01-10T10:15:19;13.53;;;10.40;;
15573;SDS011;7888;46.748;8.102;2024-01-10T10:17:53;13.07;;;9.60;;
15573;SDS011;7888;46.748;8.102;2024-01-10T10:20:21;11.93;;;9.57;;
15573;SDS011;7888;46.748;8.102;2024-01-10T10:23:04;13.13;;;10.00;;
15573;SDS011;7888;46.748;8.102;2024-01-10T10:25:36;10.90;;;8.90;;
15573;SDS011;7888;46.748;8.102;2024-01-10T10:28:07;12.00;;;9.50;;
15573;SDS011;7888;46.748;8.102;2024-01-10T10:30:33;12.30;;;9.33;;
15573;SDS011;7888;46.748;8.102;2024-01-10T10:33:00;11.20;;;9.13;;
15573;SDS011;7888;46.748;8.102;2024-01-10T10:35:27;10.73;;;9.00;;
15573;SDS011;7888;46.748;8.102;2024-01-10T10:37:53;9.73;;;8.37;;
15573;SDS011;7888;46.748;8.102;2024-01-10T10:40:19;12.33;;;10.13;;
15573;SDS011;7888;46.748;8.102;2024-01-10T10:42:56;12.10;;;9.60;;
15573;SDS011;7888;46.748;8.102;2024-01-10T10:45:23;12.87;;;9.53;;
15573;SDS011;7888;46.748;8.102;2024-01-10T10:47:58;12.67;;;10.30;;
15573;SDS011;7888;46.748;8.102;2024-01-10T10:50:27;14.93;;;10.47;;
15573;SDS011;7888;46.748;8.102;2024-01-10T10:52:58;11.60;;;8.43;;
15573;SDS011;7888;46.748;8.102;2024-01-10T10:55:28;12.73;;;9.97;;
15573;SDS011;7888;46.748;8.102;2024-01-10T10:57:55;12.13;;;10.13;;
15573;SDS011;7888;46.748;8.102;2024-01-10T11:00:23;12.03;;;10.20;;
15573;SDS011;7888;46.748;8.102;2024-01-10T11:02:55;11.53;;;9.90;;
15573;SDS011;7888;46.748;8.102;2024-01-10T11:05:22;12.77;;;10.43;;
15573;SDS011;7888;46.748;8.102;2024-01-10T11:07:49;12.77;;;9.87;;
15573;SDS011;7888;46.748;8.102;2024-01-10T11:16:29;10.97;;;9.17;;
15573;SDS011;7888;46.748;8.102;2024-01-10T11:25:56;12.23;;;9.23;;
15573;SDS011;7888;46.748;8.102;2024-01-10T11:28:25;11.67;;;9.93;;
15573;SDS011;7888;46.748;8.102;2024-01-10T11:30:53;10.73;;;9.17;;
15573;SDS011;7888;46.748;8.102;2024-01-10T11:36:07;11.10;;;8.93;;
15573;SDS011;7888;46.748;8.102;2024-01-10T11:41:32;10.03;;;8.13;;
15573;SDS011;7888;46.748;8.102;2024-01-10T11:46:38;11.30;;;9.33;;
15573;SDS011;7888;46.748;8.102;2024-01-10T11:49:10;10.23;;;8.40;;
15573;SDS011;7888;46.748;8.102;2024-01-10T11:51:44;10.77;;;9.13;;
15573;SDS011;7888;46.748;8.102;2024-01-10T11:57:21;10.83;;;9.70;;
15573;SDS011;7888;46.748;8.102;2024-01-10T11:59:54;10.37;;;9.00;;
15573;SDS011;7888;46.748;8.102;2024-01-10T12:02:21;10.20;;;8.93;;
15573;SDS011;7888;46.748;8.102;2024-01-10T12:04:50;10.53;;;9.43;;
15573;SDS011;7888;46.748;8.102;2024-01-10T12:07:16;11.70;;;10.47;;
15573;SDS011;7888;46.748;8.102;2024-01-10T12:09:43;8.10;;;6.97;;
15573;SDS011;7888;46.748;8.102;2024-01-10T12:12:10;8.00;;;7.20;;
15573;SDS011;7888;46.748;8.102;2024-01-10T12:14:37;8.60;;;7.77;;
15573;SDS011;7888;46.748;8.102;2024-01-10T12:17:04;8.20;;;7.40;;
15573;SDS011;7888;46.748;8.102;2024-01-10T12:19:33;8.27;;;7.47;;
15573;SDS011;7888;46.748;8.102;2024-01-10T12:22:00;9.17;;;8.27;;
15573;SDS011;7888;46.748;8.102;2024-01-10T12:24:29;9.60;;;8.70;;
15573;SDS011;7888;46.748;8.102;2024-01-10T12:26:56;8.03;;;7.23;;
15573;SDS011;7888;46.748;8.102;2024-01-10T12:29:21;8.93;;;8.03;;
15573;SDS011;7888;46.748;8.102;2024-01-10T12:31:49;8.90;;;8.07;;
15573;SDS011;7888;46.748;8.102;2024-01-10T12:34:14;8.83;;;7.63;;
15573;SDS011;7888;46.748;8.102;2024-01-10T12:36:41;8.63;;;7.60;;
15573;SDS011;7888;46.748;8.102;2024-01-10T12:39:08;8.97;;;7.77;;
15573;SDS011;7888;46.748;8.102;2024-01-10T12:41:34;8.17;;;7.37;;
15573;SDS011;7888;46.748;8.102;2024-01-10T12:44:01;7.97;;;6.87;;
15573;SDS011;7888;46.748;8.102;2024-01-10T12:46:31;7.33;;;6.57;;
15573;SDS011;7888;46.748;8.102;2024-01-10T12:49:01;8.10;;;7.30;;
15573;SDS011;7888;46.748;8.102;2024-01-10T12:51:30;7.93;;;6.53;;
15573;SDS011;7888;46.748;8.102;2024-01-10T12:53:58;7.63;;;6.60;;
15573;SDS011;7888;46.748;8.102;2024-01-10T12:56:25;7.43;;;6.63;;
15573;SDS011;7888;46.748;8.102;2024-01-10T12:58:53;7.63;;;6.33;;
15573;SDS011;7888;46.748;8.102;2024-01-10T13:01:22;8.13;;;6.97;;
15573;SDS011;7888;46.748;8.102;2024-01-10T13:03:50;9.20;;;6.87;;
15573;SDS011;7888;46.748;8.102;2024-01-10T13:06:16;8.63;;;7.73;;
15573;SDS011;7888;46.748;8.102;2024-01-10T13:08:43;8.03;;;7.17;;
15573;SDS011;7888;46.748;8.102;2024-01-10T13:11:10;8.27;;;7.33;;
15573;SDS011;7888;46.748;8.102;2024-01-10T13:13:39;8.33;;;7.23;;
15573;SDS011;7888;46.748;8.102;2024-01-10T13:16:05;8.40;;;7.33;;
15573;SDS011;7888;46.748;8.102;2024-01-10T13:18:31;9.20;;;7.93;;
15573;SDS011;7888;46.748;8.102;2024-01-10T13:20:57;9.17;;;7.80;;
15573;SDS011;7888;46.748;8.102;2024-01-10T13:23:23;11.70;;;9.83;;
15573;SDS011;7888;46.748;8.102;2024-01-10T13:25:49;11.13;;;9.23;;
15573;SDS011;7888;46.748;8.102;2024-01-10T13:28:16;9.93;;;8.93;;
15573;SDS011;7888;46.748;8.102;2024-01-10T13:30:43;9.60;;;8.60;;
15573;SDS011;7888;46.748;8.102;2024-01-10T13:33:09;9.00;;;7.33;;
15573;SDS011;7888;46.748;8.102;2024-01-10T13:35:35;9.17;;;7.13;;
15573;SDS011;7888;46.748;8.102;2024-01-10T13:38:02;8.13;;;7.23;;
15573;SDS011;7888;46.748;8.102;2024-01-10T13:40:29;9.00;;;7.27;;
15573;SDS011;7888;46.748;8.102;2024-01-10T13:42:56;8.13;;;7.07;;
15573;SDS011;7888;46.748;8.102;2024-01-10T13:45:22;7.20;;;6.47;;
15573;SDS011;7888;46.748;8.102;2024-01-10T13:47:48;8.70;;;7.23;;
15573;SDS011;7888;46.748;8.102;2024-01-10T13:50:14;8.77;;;7.00;;
15573;SDS011;7888;46.748;8.102;2024-01-10T13:52:41;8.70;;;7.13;;
15573;SDS011;7888;46.748;8.102;2024-01-10T13:55:07;8.13;;;7.00;;
15573;SDS011;7888;46.748;8.102;2024-01-10T13:57:34;7.70;;;6.87;;
15573;SDS011;7888;46.748;8.102;2024-01-10T14:00:00;8.60;;;6.97;;
15573;SDS011;7888;46.748;8.102;2024-01-10T14:02:28;8.30;;;7.17;;
15573;SDS011;7888;46.748;8.102;2024-01-10T14:04:54;8.80;;;7.20;;
15573;SDS011;7888;46.748;8.102;2024-01-10T14:07:22;8.43;;;6.53;;
15573;SDS011;7888;46.748;8.102;2024-01-10T14:09:49;8.80;;;7.43;;
15573;SDS011;7888;46.748;8.102;2024-01-10T14:12:19;10.23;;;8.10;;
15573;SDS011;7888;46.748;8.102;2024-01-10T14:14:45;8.87;;;7.93;;
15573;SDS011;7888;46.748;8.102;2024-01-10T14:17:11;11.60;;;8.87;;
15573;SDS011;7888;46.748;8.102;2024-01-10T14:19:36;8.93;;;7.47;;
15573;SDS011;7888;46.748;8.102;2024-01-10T14:22:02;9.57;;;7.73;;
15573;SDS011;7888;46.748;8.102;2024-01-10T14:24:28;9.70;;;7.83;;
15573;SDS011;7888;46.748;8.102;2024-01-10T14:26:54;9.17;;;7.27;;
15573;SDS011;7888;46.748;8.102;2024-01-10T14:29:20;9.07;;;7.03;;
15573;SDS011;7888;46.748;8.102;2024-01-10T14:31:47;9.47;;;7.37;;
15573;SDS011;7888;46.748;8.102;2024-01-10T14:34:14;7.90;;;6.90;;
15573;SDS011;7888;46.748;8.102;2024-01-10T14:36:40;9.33;;;7.30;;
15573;SDS011;7888;46.748;8.102;2024-01-10T14:39:06;7.17;;;6.20;;
15573;SDS011;7888;46.748;8.102;2024-01-10T14:41:32;9.10;;;7.03;;
15573;SDS011;7888;46.748;8.102;2024-01-10T14:43:59;8.93;;;7.13;;
15573;SDS011;7888;46.748;8.102;2024-01-10T14:46:26;7.97;;;7.17;;
15573;SDS011;7888;46.748;8.102;2024-01-10T14:48:53;11.00;;;6.97;;
15573;SDS011;7888;46.748;8.102;2024-01-10T14:51:19;9.30;;;6.63;;
15573;SDS011;7888;46.748;8.102;2024-01-10T14:53:45;7.93;;;6.83;;
15573;SDS011;7888;46.748;8.102;2024-01-10T14:56:10;7.40;;;6.30;;
15573;SDS011;7888;46.748;8.102;2024-01-10T14:58:38;6.83;;;5.57;;
15573;SDS011;7888;46.748;8.102;2024-01-10T15:01:11;7.73;;;6.63;;
15573;SDS011;7888;46.748;8.102;2024-01-10T15:03:37;9.47;;;7.00;;
15573;SDS011;7888;46.748;8.102;2024-01-10T15:06:03;12.00;;;9.67;;
15573;SDS011;7888;46.748;8.102;2024-01-10T15:08:30;12.87;;;9.77;;
15573;SDS011;7888;46.748;8.102;2024-01-10T15:10:57;11.60;;;9.53;;
15573;SDS011;7888;46.748;8.102;2024-01-10T15:13:22;9.60;;;8.57;;